createdAt,value
2023-04-19T00:00:27.005Z,5.40
2023-04-19T00:03:15.170Z,5.00
2023-04-19T00:05:44.856Z,5.70
2023-04-19T00:08:13.242Z,5.70
2023-04-19T00:10:41.720Z,5.30
2023-04-19T00:13:11.022Z,5.90
2023-04-19T00:15:39.914Z,5.60
2023-04-19T00:18:08.313Z,5.90
2023-04-19T00:20:37.181Z,5.90
2023-04-19T00:23:06.075Z,5.50
2023-04-19T00:25:34.918Z,5.40
2023-04-19T00:28:04.471Z,5.90
2023-04-19T00:30:33.479Z,5.80
2023-04-19T00:33:02.206Z,5.70
2023-04-19T00:35:30.942Z,5.10
2023-04-19T00:37:59.320Z,5.30
2023-04-19T00:40:28.007Z,5.40
2023-04-19T00:42:56.565Z,5.70
2023-04-19T00:45:26.153Z,5.90
2023-04-19T00:47:55.880Z,5.60
2023-04-19T00:50:24.803Z,5.70
2023-04-19T00:52:54.204Z,5.10
2023-04-19T00:55:24.027Z,5.50
2023-04-19T00:57:52.608Z,5.10
2023-04-19T01:00:21.293Z,5.60
2023-04-19T01:02:49.940Z,5.30
2023-04-19T01:05:20.720Z,5.50
2023-04-19T01:07:49.410Z,5.10
2023-04-19T01:10:18.631Z,5.60
2023-04-19T01:12:47.183Z,4.90
2023-04-19T01:15:16.071Z,4.50
2023-04-19T01:17:44.690Z,4.80
2023-04-19T01:20:13.867Z,5.20
2023-04-19T01:22:42.547Z,4.90
2023-04-19T01:25:11.767Z,4.70
2023-04-19T01:27:40.433Z,4.40
2023-04-19T01:30:10.000Z,4.40
2023-04-19T01:32:38.686Z,4.80
2023-04-19T01:35:08.035Z,5.00
2023-04-19T01:37:36.830Z,4.90
2023-04-19T01:40:06.639Z,5.20
2023-04-19T01:42:35.013Z,4.90
2023-04-19T01:45:04.231Z,5.30
2023-04-19T01:47:32.835Z,5.40
2023-04-19T01:50:04.553Z,5.00
2023-04-19T01:52:33.139Z,5.00
2023-04-19T01:55:01.769Z,5.50
2023-04-19T01:57:31.637Z,5.80
2023-04-19T02:00:00.436Z,4.90
2023-04-19T02:02:29.035Z,5.40
2023-04-19T02:04:58.213Z,5.20
2023-04-19T02:07:28.640Z,4.70
2023-04-19T02:10:00.601Z,5.10
2023-04-19T02:12:31.295Z,5.00
2023-04-19T02:15:02.287Z,5.30
2023-04-19T02:17:36.423Z,5.00
2023-04-19T02:20:06.102Z,4.40
2023-04-19T02:22:34.490Z,4.30
2023-04-19T02:25:04.312Z,4.90
2023-04-19T02:27:32.823Z,5.30
2023-04-19T02:30:02.291Z,5.30
2023-04-19T02:32:33.026Z,4.30
2023-04-19T02:35:01.495Z,4.40
2023-04-19T02:37:31.313Z,4.40
2023-04-19T02:40:00.063Z,4.40
2023-04-19T02:42:30.533Z,4.30
2023-04-19T02:45:00.222Z,4.10
2023-04-19T02:47:28.971Z,4.40
2023-04-19T02:49:57.420Z,4.40
2023-04-19T02:52:28.035Z,4.80
2023-04-19T02:54:56.829Z,4.50
2023-04-19T02:57:25.215Z,4.40
2023-04-19T02:59:54.018Z,4.10
2023-04-19T03:02:22.955Z,3.90
2023-04-19T03:04:53.224Z,4.50
2023-04-19T03:07:22.105Z,4.30
2023-04-19T03:09:51.325Z,4.10
2023-04-19T03:12:21.227Z,4.40
2023-04-19T03:14:49.811Z,4.20
2023-04-19T03:17:18.971Z,4.50
2023-04-19T03:19:48.209Z,4.00
2023-04-19T03:22:17.401Z,4.70
2023-04-19T03:24:46.082Z,6.30
2023-04-19T03:27:19.695Z,4.70
2023-04-19T03:29:50.396Z,4.30
2023-04-19T03:32:18.903Z,5.90
2023-04-19T03:34:47.474Z,5.10
2023-04-19T03:37:17.190Z,5.70
2023-04-19T03:39:46.086Z,5.00
2023-04-19T03:42:17.545Z,4.30
2023-04-19T03:45:05.406Z,4.40
2023-04-19T03:47:36.341Z,4.10
2023-04-19T03:50:05.481Z,4.60
2023-04-19T03:52:34.707Z,5.90
2023-04-19T03:55:04.213Z,5.60
2023-04-19T03:57:36.997Z,4.60
2023-04-19T04:00:12.435Z,4.00
2023-04-19T04:02:43.969Z,4.00
2023-04-19T04:05:14.096Z,3.70
2023-04-19T04:07:42.904Z,3.80
2023-04-19T04:10:11.391Z,4.60
2023-04-19T04:12:44.001Z,5.40
2023-04-19T04:15:15.927Z,5.60
2023-04-19T04:17:48.667Z,8.30
2023-04-19T04:20:17.699Z,10.10
2023-04-19T04:22:47.517Z,11.80
2023-04-19T04:25:17.991Z,10.80
2023-04-19T04:27:48.066Z,10.30
2023-04-19T04:30:19.627Z,9.30
2023-04-19T04:32:51.543Z,9.70
2023-04-19T04:35:21.017Z,6.60
2023-04-19T04:38:00.450Z,4.30
2023-04-19T04:40:29.660Z,4.50
2023-04-19T04:42:58.232Z,4.80
2023-04-19T04:45:29.608Z,3.90
2023-04-19T04:47:58.598Z,4.00
2023-04-19T04:50:28.081Z,3.70
2023-04-19T04:52:56.576Z,3.60
2023-04-19T04:55:30.273Z,3.70
2023-04-19T04:57:59.264Z,3.70
2023-04-19T05:00:38.879Z,6.10
2023-04-19T05:03:09.223Z,5.20
2023-04-19T05:05:42.744Z,5.80
2023-04-19T05:08:12.602Z,6.40
2023-04-19T05:10:41.129Z,6.80
2023-04-19T05:13:10.434Z,6.80
2023-04-19T05:15:39.219Z,6.00
2023-04-19T05:18:07.697Z,6.40
2023-04-19T05:20:36.493Z,4.60
2023-04-19T05:23:14.288Z,4.40
2023-04-19T05:25:43.591Z,7.70
2023-04-19T05:28:12.483Z,8.90
2023-04-19T05:31:00.575Z,5.30
2023-04-19T05:33:33.612Z,6.50
2023-04-19T05:36:02.571Z,3.80
2023-04-19T05:38:31.298Z,3.40
2023-04-19T05:41:00.530Z,3.50
2023-04-19T05:43:28.982Z,3.00
2023-04-19T05:45:58.200Z,3.00
2023-04-19T05:48:27.170Z,3.00
2023-04-19T05:51:06.828Z,3.20
2023-04-19T05:53:57.150Z,3.70
2023-04-19T05:56:27.299Z,3.60
2023-04-19T05:58:56.843Z,3.50
2023-04-19T06:01:25.363Z,3.10
2023-04-19T06:03:54.823Z,3.50
2023-04-19T06:06:24.110Z,3.20
2023-04-19T06:08:54.896Z,3.40
2023-04-19T06:11:31.499Z,2.90
2023-04-19T06:14:03.811Z,2.90
2023-04-19T06:16:32.669Z,3.40
2023-04-19T06:19:01.520Z,3.40
2023-04-19T06:21:33.254Z,3.60
2023-04-19T06:24:02.258Z,3.00
2023-04-19T06:26:30.928Z,3.60
2023-04-19T06:29:59.178Z,3.90
2023-04-19T06:32:27.856Z,3.50
2023-04-19T06:34:56.502Z,3.90
2023-04-19T06:37:25.070Z,3.70
2023-04-19T06:39:53.758Z,3.80
2023-04-19T06:42:23.882Z,3.60
2023-04-19T06:44:52.738Z,3.80
2023-04-19T06:47:21.483Z,3.50
2023-04-19T06:49:49.948Z,3.40
2023-04-19T06:52:18.364Z,3.70
2023-04-19T06:54:51.411Z,3.70
2023-04-19T06:57:20.028Z,3.60
2023-04-19T06:59:48.892Z,3.40
2023-04-19T07:02:17.676Z,3.50
2023-04-19T07:04:47.005Z,3.50
2023-04-19T07:07:15.534Z,3.50
2023-04-19T07:09:44.049Z,4.20
2023-04-19T07:12:12.547Z,3.90
2023-04-19T07:14:41.224Z,3.90
2023-04-19T07:17:10.113Z,3.90
2023-04-19T07:19:38.588Z,3.80
2023-04-19T07:22:07.865Z,4.20
2023-04-19T07:24:36.778Z,4.10
2023-04-19T07:27:05.158Z,4.00
2023-04-19T07:29:35.765Z,3.60
2023-04-19T07:32:05.361Z,4.00
2023-04-19T07:34:33.780Z,4.30
2023-04-19T07:37:02.370Z,3.80
2023-04-19T07:39:31.249Z,3.90
2023-04-19T07:42:01.693Z,4.10
2023-04-19T07:44:30.184Z,4.00
2023-04-19T07:46:58.872Z,3.80
2023-04-19T07:49:27.543Z,4.00
2023-04-19T07:51:56.599Z,4.30
2023-04-19T07:54:25.131Z,4.20
2023-04-19T07:56:53.705Z,4.20
2023-04-19T07:59:22.388Z,4.70
2023-04-19T08:01:51.049Z,6.00
2023-04-19T08:04:21.045Z,5.30
2023-04-19T08:06:50.197Z,5.50
2023-04-19T08:09:19.410Z,4.60
2023-04-19T08:11:47.779Z,5.70
2023-04-19T08:14:32.166Z,5.60
2023-04-19T08:19:37.801Z,5.40
2023-04-19T08:22:06.484Z,5.20
2023-04-19T08:24:35.281Z,5.50
2023-04-19T08:27:03.963Z,5.80
2023-04-19T08:29:33.892Z,6.30
2023-04-19T08:32:02.457Z,5.60
2023-04-19T08:34:31.153Z,5.60
2023-04-19T08:37:04.149Z,5.90
2023-04-19T08:39:34.933Z,5.80
2023-04-19T08:42:11.049Z,6.10
2023-04-19T08:45:09.421Z,5.60
2023-04-19T08:47:44.880Z,7.20
2023-04-19T08:50:32.597Z,6.70
2023-04-19T08:53:21.086Z,6.80
2023-04-19T08:58:50.370Z,7.00
2023-04-19T09:01:34.970Z,7.00
2023-04-19T09:04:16.966Z,6.60
2023-04-19T09:06:50.341Z,7.20
2023-04-19T09:11:59.595Z,6.40
2023-04-19T09:14:29.343Z,7.80
2023-04-19T09:17:15.895Z,7.40
2023-04-19T09:19:50.928Z,8.10
2023-04-19T09:22:19.648Z,6.70
2023-04-19T09:27:27.049Z,7.80
2023-04-19T09:29:57.782Z,8.10
2023-04-19T09:32:27.342Z,7.60
2023-04-19T09:35:00.984Z,7.20
2023-04-19T09:37:51.519Z,7.10
2023-04-19T09:40:26.016Z,6.80
2023-04-19T09:45:30.610Z,7.10
2023-04-19T09:48:05.690Z,7.60
2023-04-19T09:50:50.575Z,7.00
2023-04-19T09:53:23.810Z,7.40
2023-04-19T09:56:01.595Z,7.40
2023-04-19T09:58:46.115Z,7.50
2023-04-19T10:01:20.316Z,7.50
2023-04-19T10:03:50.969Z,7.80
2023-04-19T10:08:57.838Z,6.60
2023-04-19T10:11:30.893Z,7.80
2023-04-19T10:14:02.136Z,7.80
2023-04-19T10:16:31.014Z,8.30
2023-04-19T10:19:00.408Z,9.30
2023-04-19T10:21:29.598Z,10.30
2023-04-19T10:23:59.933Z,10.60
2023-04-19T10:26:29.005Z,10.20
2023-04-19T10:28:57.607Z,10.60
2023-04-19T10:31:27.109Z,9.60
2023-04-19T10:33:56.005Z,10.20
2023-04-19T10:36:29.098Z,9.70
2023-04-19T10:38:57.649Z,10.00
2023-04-19T10:42:02.427Z,9.80
2023-04-19T10:44:30.899Z,9.50
2023-04-19T10:47:00.088Z,9.00
2023-04-19T10:49:29.396Z,10.00
2023-04-19T10:52:01.367Z,9.50
2023-04-19T10:54:39.567Z,8.80
2023-04-19T10:57:11.754Z,8.70
2023-04-19T10:59:43.159Z,10.00
2023-04-19T11:02:25.360Z,10.10
2023-04-19T11:04:54.086Z,10.10
2023-04-19T11:07:22.579Z,9.80
2023-04-19T11:09:52.846Z,9.20
2023-04-19T11:12:22.526Z,10.00
2023-04-19T11:14:57.808Z,9.90
2023-04-19T11:17:29.609Z,10.10
2023-04-19T11:22:38.449Z,10.20
2023-04-19T11:25:19.495Z,9.50
2023-04-19T11:27:52.586Z,9.30
2023-04-19T11:30:30.668Z,9.80
2023-04-19T11:32:59.475Z,10.40
2023-04-19T11:35:30.680Z,9.80
2023-04-19T11:37:59.691Z,11.00
2023-04-19T11:40:28.349Z,10.30
2023-04-19T11:43:01.234Z,10.20
2023-04-19T11:45:38.645Z,9.90
2023-04-19T11:48:17.501Z,10.10
2023-04-19T11:50:46.962Z,9.90
2023-04-19T11:53:21.270Z,8.90
2023-04-19T11:55:54.035Z,10.00
2023-04-19T11:58:36.243Z,10.00
2023-04-19T12:01:10.880Z,9.80
2023-04-19T12:03:54.488Z,9.30
2023-04-19T12:06:24.359Z,9.10
2023-04-19T12:08:54.926Z,9.40
2023-04-19T12:11:26.752Z,10.10
2023-04-19T12:14:12.628Z,9.50
2023-04-19T12:16:41.545Z,8.60
2023-04-19T12:19:14.989Z,8.40
2023-04-19T12:21:44.223Z,7.70
2023-04-19T12:24:16.236Z,8.60
2023-04-19T12:28:14.546Z,8.30
2023-04-19T12:29:44.675Z,7.90
2023-04-19T12:32:13.414Z,7.80
2023-04-19T12:34:42.917Z,7.80
2023-04-19T12:37:11.554Z,7.00
2023-04-19T12:39:40.064Z,9.90
2023-04-19T12:42:08.757Z,8.80
2023-04-19T12:44:37.416Z,7.60
2023-04-19T12:47:05.891Z,9.10
2023-04-19T12:49:34.411Z,8.80
2023-04-19T12:52:02.946Z,8.30
2023-04-19T12:54:31.279Z,7.70
2023-04-19T12:57:00.707Z,7.70
2023-04-19T12:59:29.947Z,7.30
2023-04-19T13:01:58.408Z,8.00
2023-04-19T13:04:27.174Z,8.30
2023-04-19T13:06:56.004Z,7.70
2023-04-19T13:09:24.988Z,6.90
2023-04-19T13:11:55.222Z,7.70
2023-04-19T13:14:25.901Z,7.90
2023-04-19T13:16:55.302Z,7.40
2023-04-19T13:19:23.927Z,7.10
2023-04-19T13:21:52.389Z,7.70
2023-04-19T13:24:21.501Z,7.10
2023-04-19T13:26:50.318Z,7.10
2023-04-19T13:29:19.271Z,6.70
2023-04-19T13:31:47.851Z,6.10
2023-04-19T13:34:16.926Z,6.20
2023-04-19T13:36:45.480Z,6.40
2023-04-19T13:39:13.856Z,6.10
2023-04-19T13:41:42.441Z,6.30
2023-04-19T13:44:11.449Z,5.70
2023-04-19T13:46:39.750Z,6.40
2023-04-19T13:49:08.301Z,5.70
2023-04-19T13:51:48.908Z,5.60
2023-04-19T13:54:20.033Z,5.70
2023-04-19T13:56:51.987Z,5.30
2023-04-19T13:59:22.006Z,5.70
2023-04-19T14:01:50.565Z,5.20
2023-04-19T14:04:19.744Z,5.60
2023-04-19T14:06:49.096Z,5.50
2023-04-19T14:09:18.061Z,5.10
2023-04-19T14:11:47.379Z,5.80
2023-04-19T14:14:16.322Z,5.20
2023-04-19T14:16:45.307Z,4.70
2023-04-19T14:19:13.729Z,5.10
2023-04-19T14:21:42.102Z,5.10
2023-04-19T14:24:10.717Z,5.20
2023-04-19T14:26:39.315Z,5.40
2023-04-19T14:29:07.838Z,4.70
2023-04-19T14:31:36.520Z,6.40
2023-04-19T14:34:05.170Z,9.20
2023-04-19T14:36:33.536Z,7.40
2023-04-19T14:39:02.123Z,7.40
2023-04-19T14:41:30.719Z,5.70
2023-04-19T14:43:59.092Z,5.10
2023-04-19T14:46:27.554Z,4.70
2023-04-19T14:48:57.487Z,5.00
2023-04-19T14:51:26.588Z,4.90
2023-04-19T14:53:55.086Z,4.60
2023-04-19T14:56:23.649Z,5.00
2023-04-19T14:58:55.308Z,5.00
2023-04-19T15:01:23.897Z,5.50
2023-04-19T15:03:52.891Z,5.00
2023-04-19T15:06:21.890Z,5.50
2023-04-19T15:08:50.457Z,5.10
2023-04-19T15:11:19.050Z,5.20
2023-04-19T15:13:47.633Z,5.10
2023-04-19T15:16:16.141Z,4.40
2023-04-19T15:18:44.808Z,5.10
2023-04-19T15:21:13.468Z,5.30
2023-04-19T15:23:41.985Z,5.30
2023-04-19T15:26:10.775Z,5.80
2023-04-19T15:28:39.267Z,4.90
2023-04-19T15:31:09.237Z,5.50
2023-04-19T15:33:38.178Z,5.30
2023-04-19T15:36:07.159Z,5.30
2023-04-19T15:38:35.813Z,5.40
2023-04-19T15:41:05.115Z,5.80
2023-04-19T15:43:33.832Z,5.30
2023-04-19T15:46:02.341Z,5.90
2023-04-19T15:48:30.899Z,5.50
2023-04-19T15:50:59.600Z,5.50
2023-04-19T15:53:28.176Z,5.70
2023-04-19T15:55:57.448Z,6.10
2023-04-19T15:58:27.003Z,6.20
2023-04-19T16:00:55.411Z,5.80
2023-04-19T16:03:24.435Z,6.20
2023-04-19T16:05:53.351Z,5.30
2023-04-19T16:08:21.939Z,6.00
2023-04-19T16:10:50.903Z,5.60
2023-04-19T16:13:19.612Z,5.10
2023-04-19T16:15:48.102Z,5.80
2023-04-19T16:18:16.708Z,6.20
2023-04-19T16:20:45.166Z,5.30
2023-04-19T16:23:14.777Z,5.40
2023-04-19T16:25:43.665Z,5.50
2023-04-19T16:28:12.320Z,6.00
2023-04-19T16:30:40.834Z,6.70
2023-04-19T16:33:09.551Z,6.10
2023-04-19T16:35:38.493Z,5.80
2023-04-19T16:38:07.241Z,6.40
2023-04-19T16:40:35.997Z,5.60
2023-04-19T16:43:06.675Z,5.80
2023-04-19T16:45:35.078Z,5.90
2023-04-19T16:48:04.289Z,5.60
2023-04-19T16:50:32.996Z,5.60
2023-04-19T16:53:01.579Z,5.50
2023-04-19T16:55:30.474Z,5.90
2023-04-19T16:57:58.953Z,6.60
2023-04-19T17:00:28.276Z,6.00
2023-04-19T17:02:57.201Z,6.50
2023-04-19T17:05:26.019Z,6.50
2023-04-19T17:07:56.720Z,6.30
2023-04-19T17:10:26.996Z,6.30
2023-04-19T17:12:56.199Z,6.80
2023-04-19T17:15:24.681Z,6.50
2023-04-19T17:17:53.690Z,6.10
2023-04-19T17:21:22.168Z,7.10
2023-04-19T17:23:50.797Z,6.30
2023-04-19T17:26:19.237Z,6.90
2023-04-19T17:28:47.716Z,6.30
2023-04-19T17:31:16.461Z,11.00
2023-04-19T17:33:44.823Z,17.80
2023-04-19T17:36:13.556Z,6.70
2023-04-19T17:38:42.358Z,6.90
2023-04-19T17:41:16.577Z,6.00
2023-04-19T17:43:46.506Z,5.80
2023-04-19T17:46:15.492Z,6.30
2023-04-19T17:48:46.851Z,6.00
2023-04-19T17:51:15.624Z,5.70
2023-04-19T17:53:44.107Z,6.00
2023-04-19T17:56:12.692Z,5.90
2023-04-19T17:58:41.285Z,6.40
2023-04-19T18:01:10.600Z,6.20
2023-04-19T18:03:39.510Z,7.20
2023-04-19T18:06:12.141Z,6.60
2023-04-19T18:08:40.741Z,6.80
2023-04-19T18:11:11.153Z,7.90
2023-04-19T18:13:39.554Z,7.90
2023-04-19T18:16:08.359Z,8.80
2023-04-19T18:18:37.353Z,7.90
2023-04-19T18:21:06.632Z,8.10
2023-04-19T18:24:37.854Z,7.80
2023-04-19T18:28:06.187Z,7.80
2023-04-19T18:31:34.396Z,8.00
2023-04-19T18:35:07.143Z,7.80
2023-04-19T18:37:36.153Z,7.70
2023-04-19T18:40:07.866Z,8.30
2023-04-19T18:45:12.437Z,7.60
2023-04-19T18:47:41.458Z,8.60
2023-04-19T18:50:10.627Z,8.60
2023-04-19T18:52:39.727Z,9.60
2023-04-19T18:55:08.932Z,10.40
2023-04-19T18:57:39.093Z,10.20
2023-04-19T19:00:11.451Z,9.60
2023-04-19T19:02:41.288Z,9.10
2023-04-19T19:05:13.506Z,10.20
2023-04-19T19:07:43.311Z,10.00
2023-04-19T19:12:43.153Z,8.90
2023-04-19T19:15:12.264Z,9.00
2023-04-19T19:17:41.037Z,8.90
2023-04-19T19:20:10.348Z,7.70
2023-04-19T19:22:40.198Z,8.20
2023-04-19T19:26:08.645Z,8.30
2023-04-19T19:28:37.372Z,7.80
2023-04-19T19:31:05.780Z,7.60
2023-04-19T19:33:34.228Z,8.40
2023-04-19T19:36:03.018Z,7.60
2023-04-19T19:38:31.554Z,7.70
2023-04-19T19:41:49.003Z,7.70
2023-04-19T19:43:48.371Z,7.00
2023-04-19T19:47:09.876Z,7.70
2023-04-19T19:53:15.687Z,6.90
2023-04-19T19:55:45.313Z,6.70
2023-04-19T19:58:39.263Z,6.60
2023-04-19T20:01:03.706Z,7.50
2023-04-19T20:03:37.367Z,6.90
2023-04-19T20:08:43.993Z,6.50
2023-04-19T20:11:13.289Z,6.60
2023-04-19T20:13:41.960Z,6.90
2023-04-19T20:16:11.114Z,6.80
2023-04-19T20:18:42.917Z,6.60
2023-04-19T20:24:39.561Z,6.50
2023-04-19T20:28:07.848Z,6.60
2023-04-19T20:31:41.352Z,6.80
2023-04-19T20:35:09.455Z,7.20
2023-04-19T20:38:37.645Z,6.80
2023-04-19T20:42:05.711Z,6.70
2023-04-19T20:45:34.316Z,6.50
2023-04-19T20:52:00.977Z,6.30
2023-04-19T20:54:30.313Z,6.50
2023-04-19T20:57:04.918Z,6.70
2023-04-19T20:59:33.997Z,7.80
2023-04-19T21:02:03.510Z,7.90
2023-04-19T21:04:32.110Z,7.20
2023-04-19T21:07:01.127Z,7.30
2023-04-19T21:09:29.895Z,7.50
2023-04-19T21:11:58.532Z,7.50
2023-04-19T21:14:27.042Z,8.60
2023-04-19T21:17:55.577Z,8.60
2023-04-19T21:21:24.026Z,8.50
2023-04-19T21:24:52.549Z,8.70
2023-04-19T21:28:20.901Z,8.90
2023-04-19T21:35:41.451Z,10.20
2023-04-19T21:39:07.167Z,9.80
2023-04-19T21:42:41.358Z,11.20
2023-04-19T21:46:09.847Z,10.80
2023-04-19T21:48:58.535Z,11.10
2023-04-19T21:51:27.738Z,10.00
2023-04-19T21:53:56.361Z,11.00
2023-04-19T21:56:24.813Z,11.70
2023-04-19T21:58:53.709Z,10.40
2023-04-19T22:01:22.419Z,10.60
2023-04-19T22:03:51.483Z,10.70
2023-04-19T22:06:22.096Z,11.30
2023-04-19T22:08:51.006Z,11.60
2023-04-19T22:15:12.043Z,12.70
2023-04-19T22:18:40.311Z,12.70
2023-04-19T22:22:08.705Z,13.70
2023-04-19T22:25:42.110Z,13.40
2023-04-19T22:29:10.491Z,13.40
2023-04-19T22:32:38.800Z,11.80
2023-04-19T22:36:07.090Z,13.00
2023-04-19T22:39:35.413Z,13.90
2023-04-19T22:46:56.349Z,14.40
2023-04-19T22:49:24.780Z,15.00
2023-04-19T22:51:55.074Z,15.00
2023-04-19T22:54:23.673Z,15.40
2023-04-19T22:56:52.808Z,17.40
2023-04-19T22:59:21.249Z,17.30
2023-04-19T23:01:49.812Z,17.10
2023-04-19T23:05:18.145Z,17.90
2023-04-19T23:08:46.485Z,19.10
2023-04-19T23:12:14.915Z,19.50
2023-04-19T23:15:48.600Z,17.10
2023-04-19T23:19:17.057Z,19.60
2023-04-19T23:22:45.585Z,18.40
2023-04-19T23:25:14.276Z,16.90
2023-04-19T23:28:46.450Z,16.80
2023-04-19T23:32:14.734Z,18.40
2023-04-19T23:35:42.920Z,18.70
2023-04-19T23:39:16.328Z,18.20
2023-04-19T23:42:44.964Z,17.20
2023-04-19T23:46:13.128Z,16.00
2023-04-19T23:49:01.648Z,16.40
2023-04-19T23:51:29.930Z,16.20
2023-04-19T23:53:58.164Z,14.90
2023-04-19T23:56:26.896Z,15.30
2023-04-19T23:59:55.051Z,16.60
